createdAt,value
2019-02-06T00:00:43.592Z,32.77
2019-02-06T00:03:47.062Z,31.43
2019-02-06T00:06:50.303Z,35.97
2019-02-06T00:09:53.564Z,32.70
2019-02-06T00:12:57.406Z,35.63
2019-02-06T00:16:00.667Z,33.53
2019-02-06T00:19:03.911Z,36.13
2019-02-06T00:22:07.884Z,38.23
2019-02-06T00:25:11.518Z,32.40
2019-02-06T00:28:14.679Z,41.10
2019-02-06T00:31:17.975Z,33.83
2019-02-06T00:34:22.331Z,36.23
2019-02-06T00:37:25.601Z,35.17
2019-02-06T00:40:28.931Z,35.40
2019-02-06T00:43:32.247Z,35.60
2019-02-06T00:46:35.836Z,36.77
2019-02-06T00:49:39.191Z,34.63
2019-02-06T00:52:42.495Z,42.83
2019-02-06T00:55:45.735Z,36.33
2019-02-06T00:58:49.097Z,36.87
2019-02-06T01:01:52.319Z,39.30
2019-02-06T01:04:55.787Z,39.67
2019-02-06T01:07:58.915Z,40.83
2019-02-06T01:11:02.275Z,40.73
2019-02-06T01:14:05.795Z,38.30
2019-02-06T01:17:09.183Z,33.10
2019-02-06T01:20:13.711Z,37.83
2019-02-06T01:23:16.947Z,38.77
2019-02-06T01:26:20.336Z,38.27
2019-02-06T01:29:23.850Z,38.30
2019-02-06T01:32:27.206Z,44.47
2019-02-06T01:35:30.640Z,39.33
2019-02-06T01:38:34.108Z,38.10
2019-02-06T01:41:37.744Z,40.23
2019-02-06T01:44:41.011Z,35.87
2019-02-06T01:47:44.480Z,33.37
2019-02-06T01:50:48.012Z,36.13
2019-02-06T01:53:51.766Z,43.80
2019-02-06T01:56:55.124Z,41.13
2019-02-06T01:59:58.459Z,44.50
2019-02-06T02:03:01.715Z,38.50
2019-02-06T02:06:05.011Z,42.60
2019-02-06T02:09:14.423Z,44.77
2019-02-06T02:12:17.856Z,40.13
2019-02-06T02:15:21.044Z,45.83
2019-02-06T02:18:24.450Z,41.30
2019-02-06T02:21:27.645Z,46.33
2019-02-06T02:24:30.946Z,40.43
2019-02-06T02:27:34.134Z,43.20
2019-02-06T02:30:41.926Z,42.83
2019-02-06T02:33:46.158Z,38.77
2019-02-06T02:36:49.864Z,42.67
2019-02-06T02:39:53.197Z,39.40
2019-02-06T02:42:56.495Z,39.20
2019-02-06T02:46:00.366Z,40.30
2019-02-06T02:49:03.675Z,43.07
2019-02-06T02:52:06.972Z,41.97
2019-02-06T02:55:10.268Z,42.10
2019-02-06T02:58:13.563Z,46.13
2019-02-06T03:01:37.434Z,42.53
2019-02-06T03:04:53.948Z,41.63
2019-02-06T03:07:57.247Z,43.60
2019-02-06T03:11:00.547Z,39.23
2019-02-06T03:14:04.153Z,43.03
2019-02-06T03:17:07.759Z,45.67
2019-02-06T03:20:11.500Z,42.43
2019-02-06T03:23:14.864Z,39.43
2019-02-06T03:26:18.463Z,43.93
2019-02-06T03:29:21.767Z,46.87
2019-02-06T03:32:25.118Z,37.10
2019-02-06T03:35:29.713Z,41.40
2019-02-06T03:38:33.095Z,41.33
2019-02-06T03:41:36.349Z,38.20
2019-02-06T03:44:39.959Z,37.33
2019-02-06T03:47:43.096Z,41.50
2019-02-06T03:50:46.456Z,36.17
2019-02-06T03:53:49.889Z,31.60
2019-02-06T03:56:53.347Z,37.40
2019-02-06T03:59:56.787Z,38.70
2019-02-06T04:03:00.254Z,38.80
2019-02-06T04:06:03.792Z,36.53
2019-02-06T04:09:08.211Z,35.43
2019-02-06T04:12:11.267Z,35.47
2019-02-06T04:15:15.835Z,33.70
2019-02-06T04:18:19.206Z,32.60
2019-02-06T04:21:22.739Z,37.77
2019-02-06T04:24:26.099Z,32.93
2019-02-06T04:27:29.540Z,36.33
2019-02-06T04:30:32.895Z,37.30
2019-02-06T04:33:36.436Z,35.40
2019-02-06T04:36:39.903Z,43.60
2019-02-06T04:39:43.209Z,34.50
2019-02-06T04:42:46.947Z,31.30
2019-02-06T04:45:50.411Z,32.37
2019-02-06T04:48:53.744Z,33.93
2019-02-06T04:51:57.319Z,32.70
2019-02-06T04:55:00.817Z,30.83
2019-02-06T04:58:04.374Z,33.20
2019-02-06T05:01:07.726Z,35.63
2019-02-06T05:04:11.463Z,32.03
2019-02-06T05:07:19.262Z,34.40
2019-02-06T05:10:20.002Z,35.07
2019-02-06T05:13:23.464Z,30.33
2019-02-06T05:16:26.911Z,30.57
2019-02-06T05:19:30.181Z,32.30
2019-02-06T05:22:33.808Z,30.23
2019-02-06T05:25:37.165Z,28.40
2019-02-06T05:28:40.567Z,30.10
2019-02-06T05:31:45.093Z,29.13
2019-02-06T05:34:48.395Z,32.07
2019-02-06T05:37:51.992Z,32.47
2019-02-06T05:40:55.410Z,31.87
2019-02-06T05:43:58.595Z,30.33
2019-02-06T05:47:02.196Z,32.80
2019-02-06T05:50:05.635Z,32.10
2019-02-06T05:53:09.006Z,31.63
2019-02-06T05:56:12.510Z,32.80
2019-02-06T05:59:15.999Z,31.00
2019-02-06T06:02:19.120Z,32.90
2019-02-06T06:05:22.575Z,34.80
2019-02-06T06:08:25.996Z,33.47
2019-02-06T06:11:29.537Z,31.90
2019-02-06T06:14:32.892Z,33.07
2019-02-06T06:17:36.299Z,34.03
2019-02-06T06:20:39.695Z,36.07
2019-02-06T06:23:43.419Z,35.10
2019-02-06T06:26:46.808Z,38.53
2019-02-06T06:29:50.211Z,37.50
2019-02-06T06:32:53.405Z,36.30
2019-02-06T06:35:56.605Z,38.93
2019-02-06T06:38:59.995Z,33.73
2019-02-06T06:42:03.198Z,37.63
2019-02-06T06:45:08.340Z,35.27
2019-02-06T06:48:11.731Z,36.80
2019-02-06T06:51:14.935Z,38.43
2019-02-06T06:54:18.323Z,41.40
2019-02-06T06:57:21.735Z,42.10
2019-02-06T07:00:26.250Z,36.23
2019-02-06T07:03:29.659Z,40.93
2019-02-06T07:06:33.251Z,44.30
2019-02-06T07:09:36.559Z,37.33
2019-02-06T07:12:39.855Z,45.60
2019-02-06T07:15:43.256Z,41.13
2019-02-06T07:18:46.659Z,39.40
2019-02-06T07:21:50.051Z,37.63
2019-02-06T07:24:55.904Z,32.10
2019-02-06T07:27:59.565Z,36.77
2019-02-06T07:31:02.912Z,37.57
2019-02-06T07:34:06.517Z,37.03
2019-02-06T07:37:09.820Z,43.93
2019-02-06T07:40:13.523Z,42.63
2019-02-06T07:43:16.926Z,46.70
2019-02-06T07:46:20.574Z,43.23
2019-02-06T07:49:23.928Z,43.20
2019-02-06T07:52:27.492Z,51.20
2019-02-06T07:55:31.557Z,46.60
2019-02-06T07:58:35.318Z,47.83
2019-02-06T08:01:39.468Z,50.33
2019-02-06T08:04:42.812Z,48.43
2019-02-06T08:07:47.322Z,51.13
2019-02-06T08:10:53.595Z,54.07
2019-02-06T08:13:56.963Z,53.50
2019-02-06T08:17:00.519Z,56.43
2019-02-06T08:20:04.789Z,49.83
2019-02-06T08:23:08.439Z,48.43
2019-02-06T08:26:15.429Z,53.07
2019-02-06T08:29:25.966Z,52.47
2019-02-06T08:32:32.460Z,54.17
2019-02-06T08:35:36.913Z,52.40
2019-02-06T08:38:47.575Z,55.60
2019-02-06T08:41:52.219Z,59.13
2019-02-06T08:44:56.097Z,61.00
2019-02-06T08:48:00.419Z,61.80
2019-02-06T08:51:05.170Z,62.27
2019-02-06T08:54:09.703Z,56.50
2019-02-06T08:57:14.756Z,64.07
2019-02-06T09:00:21.759Z,56.67
2019-02-06T09:03:29.389Z,62.37
2019-02-06T09:06:33.970Z,57.30
2019-02-06T09:09:38.449Z,51.70
2019-02-06T09:12:44.242Z,53.13
2019-02-06T09:15:48.287Z,52.07
2019-02-06T09:18:51.924Z,48.87
2019-02-06T09:21:55.400Z,47.33
2019-02-06T09:24:58.840Z,39.17
2019-02-06T09:28:04.354Z,44.67
2019-02-06T09:31:07.681Z,48.97
2019-02-06T09:34:11.150Z,41.13
2019-02-06T09:37:14.773Z,45.27
2019-02-06T09:40:20.117Z,42.13
2019-02-06T09:43:23.540Z,45.27
2019-02-06T09:46:27.004Z,41.83
2019-02-06T09:49:30.522Z,48.30
2019-02-06T09:52:34.005Z,45.53
2019-02-06T09:55:37.933Z,45.67
2019-02-06T09:58:41.425Z,44.63
2019-02-06T10:01:46.092Z,43.57
2019-02-06T10:04:49.657Z,42.60
2019-02-06T10:07:53.520Z,46.10
2019-02-06T10:10:57.329Z,39.63
2019-02-06T10:14:01.142Z,43.37
2019-02-06T10:17:05.712Z,45.53
2019-02-06T10:20:11.984Z,39.23
2019-02-06T10:23:16.759Z,41.80
2019-02-06T10:26:20.219Z,38.03
2019-02-06T10:29:25.259Z,43.25
2019-02-06T10:32:29.781Z,42.98
2019-02-06T10:35:33.181Z,35.25
2019-02-06T10:38:36.784Z,44.07
2019-02-06T10:41:40.388Z,37.28
2019-02-06T10:44:43.908Z,39.57
2019-02-06T10:47:47.293Z,33.95
2019-02-06T10:50:51.928Z,34.33
2019-02-06T10:53:55.347Z,39.35
2019-02-06T10:56:58.720Z,40.67
2019-02-06T11:00:02.849Z,34.60
2019-02-06T11:03:06.545Z,31.30
2019-02-06T11:06:09.947Z,32.45
2019-02-06T11:09:13.659Z,27.23
2019-02-06T11:12:17.158Z,30.47
2019-02-06T11:15:21.169Z,31.70
2019-02-06T11:18:24.978Z,31.07
2019-02-06T11:21:28.692Z,30.85
2019-02-06T11:24:32.080Z,25.60
2019-02-06T11:27:35.488Z,28.92
2019-02-06T11:30:39.188Z,25.85
2019-02-06T11:33:42.593Z,28.62
2019-02-06T11:36:46.097Z,25.27
2019-02-06T11:39:57.678Z,26.37
2019-02-06T11:42:55.866Z,23.03
2019-02-06T11:45:59.687Z,24.23
2019-02-06T11:49:04.365Z,25.27
2019-02-06T11:52:08.938Z,24.75
2019-02-06T11:55:15.100Z,27.15
2019-02-06T11:58:18.440Z,21.30
2019-02-06T12:01:35.158Z,20.53
2019-02-06T12:04:38.615Z,21.93
2019-02-06T12:07:41.925Z,23.75
2019-02-06T12:10:45.540Z,18.25
2019-02-06T12:13:50.078Z,22.90
2019-02-06T12:16:53.441Z,20.95
2019-02-06T12:19:56.981Z,24.40
2019-02-06T12:23:00.441Z,16.43
2019-02-06T12:26:04.185Z,21.53
2019-02-06T12:29:07.544Z,22.47
2019-02-06T12:32:11.304Z,21.07
2019-02-06T12:35:14.863Z,17.77
2019-02-06T12:38:18.413Z,18.57
2019-02-06T12:41:22.065Z,19.32
2019-02-06T12:44:25.593Z,19.80
2019-02-06T12:47:28.864Z,17.62
2019-02-06T12:50:32.517Z,15.20
2019-02-06T12:53:35.973Z,21.63
2019-02-06T12:56:39.589Z,16.83
2019-02-06T12:59:43.096Z,13.80
2019-02-06T13:02:46.842Z,15.53
2019-02-06T13:05:50.492Z,17.37
2019-02-06T13:08:54.048Z,15.23
2019-02-06T13:11:57.791Z,16.55
2019-02-06T13:15:01.561Z,14.27
2019-02-06T13:18:05.328Z,14.58
2019-02-06T13:21:08.800Z,15.50
2019-02-06T13:24:12.741Z,14.95
2019-02-06T13:27:16.084Z,17.03
2019-02-06T13:30:30.395Z,12.53
2019-02-06T13:33:34.354Z,13.62
2019-02-06T13:36:37.805Z,15.18
2019-02-06T13:39:41.281Z,16.02
2019-02-06T13:42:44.616Z,13.95
2019-02-06T13:45:48.064Z,15.90
2019-02-06T13:48:51.510Z,13.48
2019-02-06T13:51:54.989Z,15.13
2019-02-06T13:54:58.336Z,15.90
2019-02-06T13:58:02.142Z,15.18
2019-02-06T14:01:05.620Z,17.80
2019-02-06T14:04:09.069Z,15.97
2019-02-06T14:07:12.520Z,13.90
2019-02-06T14:10:17.180Z,13.50
2019-02-06T14:13:20.577Z,13.05
2019-02-06T14:16:26.822Z,16.07
2019-02-06T14:19:29.339Z,13.27
2019-02-06T14:22:33.044Z,13.30
2019-02-06T14:26:05.997Z,14.97
2019-02-06T14:29:58.448Z,14.45
2019-02-06T14:33:11.320Z,13.20
2019-02-06T14:37:05.052Z,12.33
2019-02-06T14:40:40.237Z,15.38
2019-02-06T14:44:19.744Z,12.82
2019-02-06T14:47:41.168Z,14.43
2019-02-06T14:51:24.669Z,15.40
2019-02-06T14:54:46.640Z,16.67
2019-02-06T14:58:22.710Z,14.98
2019-02-06T15:01:35.754Z,14.83
2019-02-06T15:05:19.525Z,14.53
2019-02-06T15:08:48.373Z,13.10
2019-02-06T15:12:14.552Z,15.35
2019-02-06T15:15:43.200Z,14.40
2019-02-06T15:19:49.209Z,16.30
2019-02-06T15:23:46.128Z,17.73
2019-02-06T15:27:26.533Z,14.47
2019-02-06T15:31:17.300Z,15.90
2019-02-06T15:34:55.769Z,21.50
2019-02-06T15:38:40.388Z,14.23
2019-02-06T15:42:13.843Z,16.03
2019-02-06T15:46:05.037Z,17.53
2019-02-06T15:49:42.545Z,18.10
2019-02-06T15:53:41.797Z,14.77
2019-02-06T15:57:12.218Z,16.40
2019-02-06T16:00:48.357Z,21.93
2019-02-06T16:04:46.685Z,19.20
2019-02-06T16:08:24.349Z,18.73
2019-02-06T16:11:42.339Z,18.27
2019-02-06T16:15:16.245Z,21.50
2019-02-06T16:18:55.805Z,21.33
2019-02-06T16:22:37.982Z,22.33
2019-02-06T16:26:16.688Z,20.30
2019-02-06T16:30:03.240Z,20.43
2019-02-06T16:33:50.637Z,20.30
2019-02-06T16:37:25.677Z,19.13
2019-02-06T16:41:06.857Z,20.00
2019-02-06T16:44:57.678Z,21.50
2019-02-06T16:48:38.161Z,21.93
2019-02-06T16:52:18.153Z,17.77
2019-02-06T16:55:50.083Z,21.00
2019-02-06T16:59:46.972Z,20.87
2019-02-06T17:03:20.120Z,21.67
2019-02-06T17:06:49.173Z,24.07
2019-02-06T17:10:35.216Z,22.13
2019-02-06T17:14:28.485Z,20.73
2019-02-06T17:17:57.288Z,21.70
2019-02-06T17:21:39.732Z,21.17
2019-02-06T17:25:31.106Z,19.50
2019-02-06T17:29:18.600Z,19.70
2019-02-06T17:33:01.485Z,21.07
2019-02-06T17:36:28.017Z,21.57
2019-02-06T17:40:18.528Z,22.47
2019-02-06T17:44:12.542Z,24.47
2019-02-06T17:48:16.125Z,22.63
2019-02-06T17:51:38.005Z,23.03
2019-02-06T17:55:14.842Z,22.43
2019-02-06T17:58:18.688Z,22.60
2019-02-06T18:01:39.908Z,21.60
2019-02-06T18:04:44.956Z,23.87
2019-02-06T18:07:48.513Z,23.43
2019-02-06T18:10:51.857Z,22.67
2019-02-06T18:13:55.312Z,27.70
2019-02-06T18:16:59.977Z,25.03
2019-02-06T18:20:05.545Z,25.70
2019-02-06T18:23:09.101Z,26.97
2019-02-06T18:26:12.434Z,23.10
2019-02-06T18:29:16.001Z,24.20
2019-02-06T18:32:19.440Z,26.80
2019-02-06T18:35:23.148Z,24.83
2019-02-06T18:38:26.817Z,27.93
2019-02-06T18:41:30.360Z,25.13
2019-02-06T18:44:34.030Z,26.57
2019-02-06T18:47:37.632Z,21.57
2019-02-06T18:50:41.076Z,23.53
2019-02-06T18:53:44.631Z,30.90
2019-02-06T18:56:48.172Z,22.37
2019-02-06T18:59:51.653Z,27.20
2019-02-06T19:02:55.240Z,29.27
2019-02-06T19:05:58.721Z,26.43
2019-02-06T19:09:02.684Z,26.57
2019-02-06T19:12:06.470Z,29.17
2019-02-06T19:15:11.541Z,24.67
2019-02-06T19:18:15.177Z,27.10
2019-02-06T19:21:18.770Z,27.00
2019-02-06T19:24:22.367Z,26.17
2019-02-06T19:27:26.224Z,28.43
2019-02-06T19:30:33.096Z,27.37
2019-02-06T19:33:36.821Z,28.20
2019-02-06T19:36:40.156Z,26.50
2019-02-06T19:39:43.622Z,27.00
2019-02-06T19:42:47.328Z,28.43
2019-02-06T19:45:50.965Z,29.60
2019-02-06T19:48:57.104Z,28.23
2019-02-06T19:52:01.009Z,27.97
2019-02-06T19:55:04.813Z,25.93
2019-02-06T19:58:08.324Z,29.90
2019-02-06T20:01:11.976Z,26.73
2019-02-06T20:04:16.918Z,28.10
2019-02-06T20:07:22.559Z,28.60
2019-02-06T20:10:30.101Z,29.57
2019-02-06T20:13:33.513Z,24.23
2019-02-06T20:16:36.954Z,29.67
2019-02-06T20:19:41.962Z,25.70
2019-02-06T20:22:45.557Z,31.10
2019-02-06T20:25:52.347Z,28.27
2019-02-06T20:28:56.667Z,26.93
2019-02-06T20:32:00.056Z,30.20
2019-02-06T20:35:04.580Z,27.53
2019-02-06T20:38:07.877Z,28.87
2019-02-06T20:41:11.422Z,29.60
2019-02-06T20:44:15.288Z,25.97
2019-02-06T20:47:18.896Z,27.97
2019-02-06T20:50:26.904Z,27.90
2019-02-06T20:53:30.313Z,23.80
2019-02-06T20:56:33.853Z,27.40
2019-02-06T20:59:37.213Z,29.00
2019-02-06T21:02:40.608Z,26.10
2019-02-06T21:05:44.004Z,30.67
2019-02-06T21:08:47.317Z,32.13
2019-02-06T21:11:50.748Z,25.77
2019-02-06T21:14:54.212Z,32.27
2019-02-06T21:17:57.615Z,31.60
2019-02-06T21:21:01.009Z,29.17
2019-02-06T21:24:04.516Z,26.47
2019-02-06T21:27:07.936Z,31.07
2019-02-06T21:30:16.844Z,26.90
2019-02-06T21:33:20.440Z,27.73
2019-02-06T21:36:23.851Z,27.57
2019-02-06T21:39:27.282Z,23.83
2019-02-06T21:42:30.756Z,27.53
2019-02-06T21:45:34.044Z,24.70
2019-02-06T21:48:37.340Z,28.60
2019-02-06T21:51:40.744Z,23.77
2019-02-06T21:54:47.397Z,28.23
2019-02-06T21:57:51.172Z,25.70
2019-02-06T22:00:54.534Z,29.50
2019-02-06T22:03:58.258Z,26.87
2019-02-06T22:07:01.634Z,24.37
2019-02-06T22:10:07.007Z,26.53
2019-02-06T22:13:10.525Z,25.50
2019-02-06T22:16:13.984Z,27.60
2019-02-06T22:19:17.528Z,28.83
2019-02-06T22:22:21.359Z,29.20
2019-02-06T22:25:24.904Z,22.80
2019-02-06T22:28:29.473Z,26.20
2019-02-06T22:31:32.932Z,24.93
2019-02-06T22:34:36.780Z,25.83
2019-02-06T22:37:40.369Z,27.67
2019-02-06T22:40:43.848Z,27.07
2019-02-06T22:43:47.392Z,28.50
2019-02-06T22:46:52.762Z,25.30
2019-02-06T22:49:57.558Z,29.30
2019-02-06T22:53:01.278Z,28.93
2019-02-06T22:56:05.151Z,25.10
2019-02-06T22:59:13.417Z,27.77
2019-02-06T23:02:17.268Z,27.90
2019-02-06T23:05:20.776Z,23.37
2019-02-06T23:08:24.629Z,28.53
2019-02-06T23:11:28.188Z,27.17
2019-02-06T23:14:31.629Z,27.37
2019-02-06T23:17:35.164Z,27.73
2019-02-06T23:20:38.596Z,26.30
2019-02-06T23:23:42.090Z,29.70
2019-02-06T23:26:45.604Z,28.93
2019-02-06T23:29:49.108Z,24.83
2019-02-06T23:32:52.540Z,28.80
2019-02-06T23:35:56.006Z,30.33
2019-02-06T23:38:59.440Z,30.00
2019-02-06T23:42:03.109Z,28.53
2019-02-06T23:45:07.036Z,28.57
2019-02-06T23:48:10.464Z,28.80
2019-02-06T23:51:14.029Z,25.40
2019-02-06T23:54:17.564Z,31.10
2019-02-06T23:57:21.028Z,30.47
